Pagina principală
METAR-TAF:

METAR-TAF

Aeroporturi :

Coffeyville, Kansas, Statele Unite ale Americii

Latitudine: 37-05-28N, longitudine: 095-33-59W, elevație: 229 m

Observații meteo curente

Raportul a fost făcut în urmă cu 26 de minute, la 00:52 UTC
Vânt 10 kt de la Nord/Nord-vest
Temperatură 24°C
Umiditate 61%
Presiune 1007 hPa
Vizibilitate: 16.1 km
Cer senin

METAR: KCFV 220052Z AUTO 34010KT 10SM CLR 24/16 A2973 RMK AO2 SLP059 T02390156

Ora: 20:18 (01:18 UTC)


TAF: lipsă

Observații și prognoze meteo pentru peste 4.000 de aeroporturi (rapoarte METAR și TAF).

Stațiile disponibile sunt reprezentate pe hartă prin puncte galbene și roșii.

Țineți indicatorul mouse-ului pe punctul dorit pentru a vedea denumirea stației.

Apoi, faceți clic pentru a vedea observațiile și prognozele meteorologice.

Pentru a schimba harta: Pentru mărire, faceți clic pe butoanele verzi cu cruce neagră; pentru micșorare, pe butonul verde cu o liniuță; pentru hărți învecinate, pe săgețile verzi.


METAR-TAF: